Time;durP1;ratioP1;P1;durP2;ratioP2;P2;SDS_P1;SDS_P2;PMS_P1;PMS_P2;Temp;Humidity;BMP_temperature;BMP_pressure;BME280_temperature;BME280_humidity;BME280_pressure;Samples;Min_cycle;Max_cycle;Signal;HPM_P1;HPM_P2
2022/03/28 00:00:46;;;;;;;2.83;2.63;;;20.30;57.70;;;;;;4977546;28;20046;-13
2022/03/28 00:03:12;;;;;;;2.42;2.33;;;20.30;57.60;;;;;;4991270;28;20051;-13
2022/03/28 00:05:39;;;;;;;2.90;2.70;;;20.30;57.60;;;;;;4995222;28;20077;-13
2022/03/28 00:08:05;;;;;;;3.10;2.90;;;20.30;57.70;;;;;;4995315;28;20458;-13
2022/03/28 00:10:30;;;;;;;2.75;2.65;;;20.30;57.80;;;;;;4982286;28;20302;-12
2022/03/28 00:12:56;;;;;;;2.40;2.30;;;20.30;57.70;;;;;;4992695;28;20478;-13
2022/03/28 00:15:21;;;;;;;2.75;2.65;;;20.30;57.70;;;;;;4995748;28;20038;-14
2022/03/28 00:17:47;;;;;;;2.60;2.50;;;20.30;57.70;;;;;;4995906;28;20400;-13
2022/03/28 00:20:13;;;;;;;2.58;2.38;;;20.30;57.80;;;;;;4992661;28;20046;-12
2022/03/28 00:22:39;;;;;;;2.53;2.38;;;20.30;57.70;;;;;;4990998;28;20050;-13
2022/03/28 00:25:06;;;;;;;2.88;2.72;;;20.30;58.00;;;;;;4985427;28;20562;-13
2022/03/28 00:27:32;;;;;;;2.88;2.67;;;20.30;58.00;;;;;;4976266;28;20039;-13
2022/03/28 00:29:57;;;;;;;2.67;2.58;;;20.30;58.30;;;;;;4977505;28;20054;-13
2022/03/28 00:32:23;;;;;;;2.60;2.50;;;20.30;58.20;;;;;;4976476;28;20126;-13
2022/03/28 00:34:48;;;;;;;3.10;2.90;;;20.30;58.30;;;;;;4977130;28;20047;-13
2022/03/28 00:37:14;;;;;;;2.65;2.55;;;20.20;58.50;;;;;;4990392;28;20098;-12
2022/03/28 00:39:40;;;;;;;3.08;2.53;;;20.30;58.80;;;;;;4995573;28;20069;-13
2022/03/28 00:42:05;;;;;;;2.70;2.60;;;20.30;58.70;;;;;;4996098;28;20042;-13
2022/03/28 00:44:32;;;;;;;2.75;2.63;;;20.30;58.80;;;;;;4978016;28;20054;-12
2022/03/28 00:46:58;;;;;;;2.75;2.65;;;20.30;59.00;;;;;;4976731;28;20129;-12
2022/03/28 00:49:23;;;;;;;2.45;2.35;;;20.30;59.00;;;;;;4993512;28;20096;-16
2022/03/28 00:51:49;;;;;;;3.72;2.92;;;20.30;59.20;;;;;;4995596;28;20057;-13
2022/03/28 00:54:15;;;;;;;2.92;2.80;;;20.30;59.10;;;;;;4994969;28;20046;-12
2022/03/28 00:56:42;;;;;;;3.38;3.17;;;20.30;59.20;;;;;;4993822;28;20038;-13
2022/03/28 00:59:08;;;;;;;2.97;2.78;;;20.30;59.10;;;;;;4990913;28;20400;-12
2022/03/28 01:01:33;;;;;;;3.03;2.83;;;20.20;59.40;;;;;;4975844;28;20097;-13
2022/03/28 01:03:59;;;;;;;3.10;2.88;;;20.30;59.60;;;;;;4993300;28;20452;-13
2022/03/28 01:06:25;;;;;;;2.72;2.63;;;20.20;59.80;;;;;;4994264;28;20046;-14
2022/03/28 01:08:50;;;;;;;3.17;2.97;;;20.20;60.70;;;;;;4994903;28;20085;-13
2022/03/28 01:11:17;;;;;;;2.80;2.70;;;20.20;59.50;;;;;;4994426;28;20538;-13
2022/03/28 01:13:43;;;;;;;2.45;2.35;;;20.10;59.50;;;;;;4994120;28;20046;-12
2022/03/28 01:16:09;;;;;;;2.47;2.38;;;20.10;59.70;;;;;;4993750;28;20100;-13
2022/03/28 01:18:34;;;;;;;2.97;2.78;;;20.10;59.70;;;;;;4995096;28;20046;-14
2022/03/28 01:21:01;;;;;;;2.38;2.25;;;20.20;59.70;;;;;;4982479;28;20524;-13
2022/03/28 01:23:27;;;;;;;2.60;2.50;;;20.20;59.60;;;;;;4994417;28;20053;-13
2022/03/28 01:25:53;;;;;;;2.70;2.60;;;20.10;59.60;;;;;;4994870;28;20511;-13
2022/03/28 01:28:22;;;;;;;2.70;2.60;;;20.10;59.70;;;;;;4995331;28;20102;-12
2022/03/28 01:30:48;;;;;;;3.22;3.03;;;20.10;59.70;;;;;;4994897;28;20062;-13
2022/03/28 01:33:14;;;;;;;2.95;2.75;;;20.00;59.80;;;;;;4995225;28;20078;-13
2022/03/28 01:35:41;;;;;;;2.78;2.67;;;20.00;59.70;;;;;;4993806;28;20399;-14
2022/03/28 01:38:14;;;;;;;2.92;2.72;;;20.00;59.80;;;;;;4989526;28;20517;-12
2022/03/28 01:40:43;;;;;;;2.53;2.43;;;20.00;59.90;;;;;;4975370;28;20054;-13
2022/03/28 01:43:09;;;;;;;2.70;2.53;;;19.90;59.70;;;;;;4981167;28;20038;-13
2022/03/28 01:45:34;;;;;;;2.42;2.33;;;19.90;59.70;;;;;;4993872;28;20050;-12
2022/03/28 01:48:00;;;;;;;2.47;2.38;;;19.90;59.90;;;;;;4994713;28;20053;-13
2022/03/28 01:50:25;;;;;;;2.83;2.63;;;19.90;59.80;;;;;;4995369;28;20158;-13
2022/03/28 01:52:51;;;;;;;3.00;2.83;;;19.90;59.70;;;;;;4993135;28;20084;-13
2022/03/28 01:55:17;;;;;;;2.67;2.58;;;19.90;59.70;;;;;;4995007;28;20137;-12
2022/03/28 01:57:43;;;;;;;2.45;2.35;;;19.90;59.80;;;;;;4994395;28;20043;-12
2022/03/28 02:00:11;;;;;;;2.80;2.60;;;20.00;59.80;;;;;;4994232;28;20042;-12
2022/03/28 02:02:36;;;;;;;2.50;2.40;;;20.00;59.70;;;;;;4994528;28;20200;-13
2022/03/28 02:05:03;;;;;;;2.45;2.35;;;19.90;59.70;;;;;;4997967;28;20162;-12
2022/03/28 02:07:29;;;;;;;2.90;2.70;;;19.90;59.80;;;;;;4997871;28;20035;-12
2022/03/28 02:09:55;;;;;;;3.00;2.80;;;19.90;59.70;;;;;;4998350;28;20046;-13
2022/03/28 02:12:21;;;;;;;2.58;2.45;;;20.00;59.70;;;;;;4998706;28;20061;-12
2022/03/28 02:14:46;;;;;;;2.47;2.38;;;19.90;59.60;;;;;;4998289;28;20046;-12
2022/03/28 02:17:12;;;;;;;2.30;2.20;;;19.90;59.60;;;;;;4998869;28;20094;-12
2022/03/28 02:19:38;;;;;;;2.65;2.45;;;19.90;59.70;;;;;;4997271;28;20057;-12
2022/03/28 02:22:04;;;;;;;2.65;2.53;;;19.90;59.80;;;;;;4998121;28;21208;-13
2022/03/28 02:24:30;;;;;;;2.47;2.38;;;20.00;59.90;;;;;;4997308;28;20398;-13
2022/03/28 02:26:56;;;;;;;2.90;2.70;;;20.00;59.90;;;;;;4998446;28;20507;-23
2022/03/28 02:29:21;;;;;;;2.80;2.60;;;19.90;59.80;;;;;;4988296;28;20173;-13
2022/03/28 02:31:47;;;;;;;2.55;2.45;;;19.90;59.70;;;;;;4978584;28;20062;-12
2022/03/28 02:34:13;;;;;;;2.75;2.65;;;19.90;59.80;;;;;;4979504;28;20137;-13
2022/03/28 02:36:39;;;;;;;2.80;2.60;;;19.90;59.80;;;;;;4978589;28;20066;-14
2022/03/28 02:39:05;;;;;;;2.65;2.55;;;19.90;59.80;;;;;;4994345;28;20047;-13
2022/03/28 02:41:30;;;;;;;3.00;2.83;;;20.00;60.00;;;;;;4992416;28;20042;-13
2022/03/28 02:43:56;;;;;;;2.75;2.55;;;19.90;59.60;;;;;;4985225;28;20534;-12
2022/03/28 02:46:22;;;;;;;2.40;2.30;;;19.90;59.60;;;;;;4997816;28;20523;-14
2022/03/28 02:48:47;;;;;;;2.20;2.10;;;20.00;59.70;;;;;;4997721;28;20089;-12
2022/03/28 02:51:13;;;;;;;2.60;2.40;;;19.90;60.30;;;;;;4998413;28;20050;-12
2022/03/28 02:53:39;;;;;;;2.50;2.40;;;19.90;59.70;;;;;;4996209;28;20058;-12
2022/03/28 02:56:05;;;;;;;2.40;2.30;;;19.90;59.60;;;;;;4979080;28;20082;-13
2022/03/28 02:58:31;;;;;;;2.40;2.30;;;19.90;59.50;;;;;;4978079;28;20039;-15
2022/03/28 03:00:57;;;;;;;2.60;2.50;;;20.00;59.70;;;;;;4978640;28;20146;-12
2022/03/28 03:03:23;;;;;;;2.47;2.38;;;20.00;59.70;;;;;;4989270;28;20046;-13
2022/03/28 03:05:49;;;;;;;2.60;2.40;;;20.00;59.60;;;;;;4977911;28;20073;-13
2022/03/28 03:08:16;;;;;;;2.35;2.25;;;19.90;59.60;;;;;;4988039;28;20046;-12
2022/03/28 03:10:42;;;;;;;2.42;2.30;;;19.90;59.50;;;;;;4997280;28;20035;-12
2022/03/28 03:13:08;;;;;;;2.47;2.38;;;19.90;59.60;;;;;;4997137;28;20496;-12
2022/03/28 03:15:34;;;;;;;2.10;2.00;;;19.90;59.50;;;;;;4996980;28;20138;-14
2022/03/28 03:18:00;;;;;;;2.20;2.10;;;20.00;59.40;;;;;;4997935;28;20574;-13
2022/03/28 03:20:25;;;;;;;2.70;2.60;;;19.90;59.40;;;;;;4997587;28;20116;-14
2022/03/28 03:22:51;;;;;;;2.60;2.50;;;19.90;59.50;;;;;;4996179;28;20038;-13
2022/03/28 03:25:18;;;;;;;2.30;2.20;;;19.90;59.50;;;;;;4997387;28;20112;-12
2022/03/28 03:27:43;;;;;;;2.33;2.17;;;19.90;59.60;;;;;;4997126;28;20038;-12
2022/03/28 03:30:10;;;;;;;2.92;2.72;;;19.90;59.60;;;;;;4995484;28;20522;-12
2022/03/28 03:32:36;;;;;;;2.17;2.08;;;19.90;59.70;;;;;;4996994;28;20035;-12
2022/03/28 03:35:06;;;;;;;2.38;2.20;;;19.90;59.80;;;;;;4997009;28;20575;-13
2022/03/28 03:37:32;;;;;;;2.50;2.40;;;19.90;59.90;;;;;;4982876;28;20042;-13
2022/03/28 03:39:58;;;;;;;2.13;2.03;;;19.90;59.80;;;;;;4996804;28;20053;-12
2022/03/28 03:42:23;;;;;;;2.35;2.25;;;19.90;59.80;;;;;;4986244;28;20054;-13
2022/03/28 03:44:49;;;;;;;1.98;1.88;;;19.90;59.70;;;;;;4979043;28;20051;-12
2022/03/28 03:47:14;;;;;;;2.20;2.10;;;19.90;59.80;;;;;;4994706;28;20053;-12
2022/03/28 03:49:40;;;;;;;2.30;2.20;;;19.90;59.80;;;;;;4977610;28;20046;-13
2022/03/28 03:52:07;;;;;;;2.55;2.45;;;19.90;59.70;;;;;;4978443;28;20049;-12
2022/03/28 03:54:33;;;;;;;2.20;2.10;;;19.80;59.70;;;;;;4996113;28;20415;-12
2022/03/28 03:56:58;;;;;;;2.50;2.30;;;19.90;59.70;;;;;;4996325;28;20049;-12
2022/03/28 03:59:24;;;;;;;2.10;2.00;;;19.80;59.80;;;;;;4996855;28;20046;-13
2022/03/28 04:01:50;;;;;;;1.90;1.80;;;19.80;59.70;;;;;;4995740;28;20035;-13
2022/03/28 04:04:16;;;;;;;2.50;2.40;;;19.80;59.80;;;;;;4997056;28;20042;-13
2022/03/28 04:06:41;;;;;;;2.22;2.13;;;19.80;60.00;;;;;;4995518;28;20110;-12
2022/03/28 04:09:07;;;;;;;2.47;2.38;;;19.80;59.90;;;;;;4996204;28;20575;-12
2022/03/28 04:11:33;;;;;;;2.20;2.00;;;19.80;59.90;;;;;;4996778;28;20038;-12
2022/03/28 04:13:58;;;;;;;2.30;2.20;;;19.80;59.80;;;;;;4993973;28;20053;-13
2022/03/28 04:16:24;;;;;;;2.72;2.53;;;19.80;59.70;;;;;;4997019;28;20042;-13
2022/03/28 04:18:49;;;;;;;2.50;2.40;;;19.80;59.80;;;;;;4996147;28;20039;-13
2022/03/28 04:21:15;;;;;;;2.50;2.40;;;19.80;59.90;;;;;;4984446;28;20508;-13
2022/03/28 04:23:41;;;;;;;2.10;2.00;;;19.80;59.90;;;;;;4988461;28;20046;-13
2022/03/28 04:26:06;;;;;;;2.70;2.60;;;19.80;59.70;;;;;;4996463;28;20089;-13
2022/03/28 04:28:32;;;;;;;2.20;2.10;;;19.80;59.80;;;;;;4994857;28;20050;-13
2022/03/28 04:30:58;;;;;;;2.50;2.40;;;19.80;60.00;;;;;;4995979;28;20066;-12
2022/03/28 04:33:23;;;;;;;2.38;2.28;;;19.80;59.80;;;;;;4995939;28;20149;-13
2022/03/28 04:35:50;;;;;;;2.30;2.17;;;19.80;59.70;;;;;;4996313;28;20046;-12
2022/03/28 04:38:15;;;;;;;2.40;2.30;;;19.80;59.70;;;;;;4996221;28;21025;-13
2022/03/28 04:40:41;;;;;;;2.50;2.40;;;19.80;59.90;;;;;;4995653;28;20054;-13
2022/03/28 04:43:07;;;;;;;2.00;1.90;;;19.80;59.80;;;;;;4995491;28;20051;-12
2022/03/28 04:45:32;;;;;;;2.45;2.35;;;19.80;59.80;;;;;;4995530;28;20038;-13
2022/03/28 04:47:58;;;;;;;2.20;2.10;;;19.80;59.60;;;;;;4993397;28;20086;-12
2022/03/28 04:50:24;;;;;;;2.75;2.50;;;19.80;59.70;;;;;;4995427;28;20116;-13
2022/03/28 04:52:50;;;;;;;2.40;2.30;;;19.80;59.70;;;;;;4995355;28;20619;-12
2022/03/28 04:55:15;;;;;;;2.40;2.30;;;19.80;59.70;;;;;;4995001;28;20491;-13
2022/03/28 04:57:41;;;;;;;2.20;2.10;;;19.80;59.70;;;;;;4992758;28;20062;-12
2022/03/28 05:00:08;;;;;;;2.42;2.33;;;19.80;60.00;;;;;;4995155;28;20407;-12
2022/03/28 05:02:34;;;;;;;2.45;2.35;;;19.70;59.80;;;;;;4995867;28;20046;-12
2022/03/28 05:05:00;;;;;;;2.55;2.45;;;19.70;61.00;;;;;;4992587;28;20133;-12
2022/03/28 05:07:29;;;;;;;2.40;2.30;;;19.70;61.50;;;;;;4981904;28;20093;-13
2022/03/28 05:09:55;;;;;;;2.22;2.13;;;19.70;62.00;;;;;;4989441;28;20042;-13
2022/03/28 05:12:21;;;;;;;2.35;2.15;;;19.80;62.80;;;;;;4991109;28;20043;-12
2022/03/28 05:14:47;;;;;;;2.42;2.33;;;19.80;61.50;;;;;;4989244;28;20049;-12
2022/03/28 05:17:15;;;;;;;2.20;2.10;;;19.80;61.30;;;;;;4992689;28;20060;-12
2022/03/28 05:19:41;;;;;;;3.05;2.85;;;19.70;61.80;;;;;;4995943;28;20061;-16
2022/03/28 05:22:07;;;;;;;2.22;2.13;;;19.80;61.90;;;;;;4991057;28;20475;-12
2022/03/28 05:24:32;;;;;;;3.47;3.10;;;19.70;61.70;;;;;;4994960;28;20038;-12
2022/03/28 05:26:58;;;;;;;3.55;3.25;;;19.80;61.40;;;;;;4989275;28;20045;-13
2022/03/28 05:29:24;;;;;;;3.03;2.83;;;19.80;61.30;;;;;;4978096;28;20533;-13
2022/03/28 05:31:50;;;;;;;4.63;3.35;;;19.80;61.30;;;;;;4988120;28;20050;-13
2022/03/28 05:34:16;;;;;;;4.25;3.90;;;19.80;61.30;;;;;;4996332;28;20046;-13
2022/03/28 05:36:42;;;;;;;4.93;4.45;;;19.80;61.40;;;;;;4978882;28;20053;-15
2022/03/28 05:39:08;;;;;;;3.80;3.33;;;19.80;61.30;;;;;;4977690;28;20051;-14
2022/03/28 05:41:34;;;;;;;3.78;3.40;;;19.80;61.70;;;;;;4983364;28;20107;-13
2022/03/28 05:43:59;;;;;;;3.17;2.97;;;19.80;62.00;;;;;;4991108;28;20480;-13
2022/03/28 05:46:25;;;;;;;3.72;3.25;;;19.80;61.60;;;;;;4995259;28;20046;-14
2022/03/28 05:48:51;;;;;;;5.38;3.45;;;19.80;61.70;;;;;;4984605;28;20078;-13
2022/03/28 05:51:16;;;;;;;6.93;3.05;;;19.80;61.70;;;;;;4994746;28;20201;-14
2022/03/28 05:53:42;;;;;;;3.40;3.10;;;19.80;61.80;;;;;;4993997;28;20423;-13
2022/03/28 05:56:08;;;;;;;3.53;2.80;;;19.80;61.60;;;;;;4976044;28;20113;-13
2022/03/28 05:58:34;;;;;;;3.63;3.13;;;19.80;61.80;;;;;;4976758;28;20054;-14
2022/03/28 06:01:00;;;;;;;4.28;3.20;;;19.80;61.80;;;;;;4975987;28;20054;-13
2022/03/28 06:03:26;;;;;;;3.50;3.20;;;19.80;61.70;;;;;;4976629;28;20053;-13
2022/03/28 06:05:52;;;;;;;3.72;2.80;;;19.80;61.80;;;;;;4992858;28;20629;-14
2022/03/28 06:08:18;;;;;;;7.80;3.70;;;19.80;61.50;;;;;;4995696;28;20384;-15
2022/03/28 06:10:43;;;;;;;3.28;2.72;;;19.70;61.50;;;;;;4995964;28;20073;-13
2022/03/28 06:13:09;;;;;;;3.03;2.70;;;19.70;61.50;;;;;;4987248;28;20073;-14
2022/03/28 06:15:37;;;;;;;3.50;2.28;;;19.80;61.20;;;;;;4994703;28;20106;-14
2022/03/28 06:18:05;;;;;;;3.67;2.70;;;19.90;61.10;;;;;;4994978;28;20495;-13
2022/03/28 06:20:32;;;;;;;3.17;2.97;;;19.80;61.50;;;;;;4990975;28;20057;-14
2022/03/28 06:22:58;;;;;;;3.33;3.05;;;19.80;61.20;;;;;;4992050;28;20058;-13
2022/03/28 06:25:23;;;;;;;3.13;2.88;;;19.80;61.00;;;;;;4987877;28;20042;-14
2022/03/28 06:27:49;;;;;;;3.33;3.10;;;19.80;61.10;;;;;;4994991;28;20049;-14
2022/03/28 06:30:15;;;;;;;3.30;3.00;;;19.80;61.20;;;;;;4991499;28;20047;-14
2022/03/28 06:32:41;;;;;;;4.40;3.00;;;19.80;61.30;;;;;;4995402;28;20499;-13
2022/03/28 06:35:08;;;;;;;3.30;2.80;;;19.80;61.30;;;;;;4988925;28;20516;-13
2022/03/28 06:37:36;;;;;;;3.38;2.90;;;19.80;61.30;;;;;;4994208;28;20042;-14
2022/03/28 06:40:05;;;;;;;3.92;3.05;;;19.80;61.20;;;;;;4994367;28;20039;-13
2022/03/28 06:42:32;;;;;;;4.45;2.58;;;19.80;61.30;;;;;;4994032;28;20045;-14
2022/03/28 06:44:58;;;;;;;3.58;3.25;;;19.80;61.40;;;;;;4994989;28;20681;-13
2022/03/28 06:47:24;;;;;;;3.97;2.38;;;19.80;61.10;;;;;;4993482;28;20419;-14
2022/03/28 06:49:49;;;;;;;3.78;3.33;;;19.80;60.90;;;;;;4992635;28;20407;-13
2022/03/28 06:52:15;;;;;;;7.15;3.00;;;19.80;60.60;;;;;;4992870;28;20068;-13
2022/03/28 06:54:41;;;;;;;3.13;2.92;;;19.70;61.20;;;;;;4988747;28;20263;-14
2022/03/28 06:57:06;;;;;;;3.33;2.80;;;19.70;61.40;;;;;;4979603;28;20069;-14
2022/03/28 06:59:32;;;;;;;3.13;2.92;;;19.70;61.20;;;;;;4982680;28;20047;-14
2022/03/28 07:01:57;;;;;;;3.50;3.20;;;19.70;61.20;;;;;;4983245;28;20050;-14
2022/03/28 07:04:24;;;;;;;4.20;3.25;;;19.70;61.40;;;;;;4982718;28;20046;-13
2022/03/28 07:06:50;;;;;;;5.75;3.00;;;19.60;61.50;;;;;;4980058;28;20046;-14
2022/03/28 07:09:15;;;;;;;3.50;3.30;;;19.70;61.50;;;;;;4982659;28;20057;-14
2022/03/28 07:11:41;;;;;;;3.70;3.40;;;19.70;61.60;;;;;;4983842;28;20050;-14
2022/03/28 07:14:07;;;;;;;2.97;2.78;;;19.70;61.50;;;;;;4980662;28;20088;-13
2022/03/28 07:16:35;;;;;;;3.50;3.20;;;19.70;61.40;;;;;;4980913;28;20057;-14
2022/03/28 07:19:01;;;;;;;3.38;2.97;;;19.70;61.30;;;;;;4982646;28;20065;-13
2022/03/28 07:21:27;;;;;;;2.92;2.72;;;19.80;61.40;;;;;;4979291;28;20074;-13
2022/03/28 07:23:53;;;;;;;3.22;2.92;;;19.80;61.30;;;;;;4982261;28;20046;-14
2022/03/28 07:26:20;;;;;;;2.88;2.67;;;19.80;61.20;;;;;;4981348;28;20109;-13
2022/03/28 07:28:46;;;;;;;3.78;2.70;;;19.80;61.20;;;;;;4982857;28;20050;-14
2022/03/28 07:31:11;;;;;;;4.25;2.75;;;19.90;61.20;;;;;;4982142;28;20069;-14
2022/03/28 07:33:42;;;;;;;3.10;2.90;;;19.90;61.10;;;;;;4983481;28;20069;-14
2022/03/28 07:36:08;;;;;;;2.92;2.72;;;19.90;61.10;;;;;;4981009;28;20149;-14
2022/03/28 07:38:34;;;;;;;3.85;2.90;;;19.90;60.90;;;;;;4983059;28;20133;-14
2022/03/28 07:41:00;;;;;;;3.97;2.35;;;19.90;61.00;;;;;;4982496;28;20506;-14
2022/03/28 07:43:26;;;;;;;2.90;2.70;;;19.90;61.10;;;;;;4983271;28;20089;-14
2022/03/28 07:45:54;;;;;;;3.10;2.88;;;19.90;60.80;;;;;;4981688;28;20109;-15
2022/03/28 07:48:21;;;;;;;3.13;2.75;;;19.90;60.70;;;;;;4978881;28;20077;-14
2022/03/28 07:50:47;;;;;;;2.53;2.35;;;19.90;60.70;;;;;;4982233;28;20169;-14
2022/03/28 07:53:13;;;;;;;2.92;2.72;;;20.00;60.70;;;;;;4981729;28;20042;-15
2022/03/28 07:55:39;;;;;;;2.63;2.50;;;20.00;60.50;;;;;;4981551;28;20077;-14
2022/03/28 07:58:08;;;;;;;3.00;2.80;;;20.00;60.50;;;;;;4980751;28;20050;-13
2022/03/28 08:00:34;;;;;;;3.10;2.90;;;20.00;61.30;;;;;;4982437;28;20050;-14
2022/03/28 08:03:00;;;;;;;2.67;2.47;;;20.00;60.20;;;;;;4980520;28;20051;-15
2022/03/28 08:05:26;;;;;;;2.97;2.70;;;20.00;60.20;;;;;;4981525;28;20054;-15
2022/03/28 08:07:52;;;;;;;2.63;2.28;;;20.00;60.60;;;;;;4979670;28;20042;-14
2022/03/28 08:10:18;;;;;;;2.70;2.50;;;20.00;60.20;;;;;;4982641;28;20432;-13
2022/03/28 08:12:44;;;;;;;2.65;2.55;;;20.00;60.30;;;;;;4981995;28;20137;-14
2022/03/28 08:15:11;;;;;;;3.20;2.63;;;20.10;60.20;;;;;;4981021;28;20054;-14
2022/03/28 08:17:37;;;;;;;2.85;2.65;;;20.10;59.90;;;;;;4981202;28;20066;-14
2022/03/28 08:20:06;;;;;;;2.70;2.50;;;20.10;59.80;;;;;;4981225;28;20084;-14
2022/03/28 08:22:32;;;;;;;3.05;2.60;;;20.10;59.80;;;;;;4982298;28;20050;-14
2022/03/28 08:24:58;;;;;;;3.20;2.90;;;20.10;59.70;;;;;;4982011;28;20125;-14
2022/03/28 08:27:24;;;;;;;2.50;2.30;;;20.20;59.60;;;;;;4980736;28;20139;-14
2022/03/28 08:29:49;;;;;;;3.25;2.50;;;20.20;59.60;;;;;;4981473;28;20088;-15
2022/03/28 08:32:15;;;;;;;2.60;2.50;;;20.20;59.50;;;;;;4981840;28;20096;-14
2022/03/28 08:34:41;;;;;;;2.63;2.53;;;20.20;59.50;;;;;;4981788;28;20093;-13
2022/03/28 08:37:09;;;;;;;2.60;2.50;;;20.20;59.40;;;;;;4980151;28;21011;-13
2022/03/28 08:39:35;;;;;;;2.75;2.47;;;20.20;59.40;;;;;;4981305;28;20054;-15
2022/03/28 08:42:00;;;;;;;2.30;2.20;;;20.20;59.30;;;;;;4980854;28;20782;-14
2022/03/28 08:44:27;;;;;;;2.70;2.50;;;20.20;59.40;;;;;;4980739;28;20162;-15
2022/03/28 08:46:53;;;;;;;2.63;2.42;;;20.20;59.20;;;;;;4980141;28;20050;-14
2022/03/28 08:49:19;;;;;;;2.78;2.58;;;20.20;59.60;;;;;;4981359;28;20101;-14
2022/03/28 08:51:44;;;;;;;2.45;2.25;;;20.20;59.50;;;;;;4981916;28;20057;-15
2022/03/28 08:54:10;;;;;;;2.38;2.28;;;20.10;59.40;;;;;;4980762;28;20069;-14
2022/03/28 08:56:36;;;;;;;2.70;2.50;;;20.10;59.60;;;;;;4979730;28;20547;-14
2022/03/28 08:59:03;;;;;;;2.45;2.25;;;20.20;59.30;;;;;;4980870;28;20057;-15
2022/03/28 09:01:29;;;;;;;2.67;2.47;;;20.20;59.10;;;;;;4981540;28;20388;-13
2022/03/28 09:03:54;;;;;;;2.60;2.40;;;20.20;59.20;;;;;;4981551;28;20057;-16
2022/03/28 09:06:38;;;;;;;3.03;2.85;;;20.20;59.30;;;;;;4979508;28;20054;-14
2022/03/28 09:09:21;;;;;;;2.45;2.35;;;20.20;59.50;;;;;;4979946;28;20054;-14
2022/03/28 09:11:58;;;;;;;2.70;2.55;;;20.20;59.40;;;;;;4977641;28;20046;-13
2022/03/28 09:14:34;;;;;;;2.22;2.13;;;20.10;59.40;;;;;;4976271;28;20065;-14
2022/03/28 09:17:04;;;;;;;3.33;2.35;;;20.20;59.10;;;;;;4978228;28;20085;-15
2022/03/28 09:19:53;;;;;;;2.33;2.22;;;20.20;59.40;;;;;;4980945;28;20100;-15
2022/03/28 09:22:26;;;;;;;2.53;2.30;;;20.30;58.90;;;;;;4980031;28;20160;-15
2022/03/28 09:24:59;;;;;;;2.40;2.30;;;20.40;58.70;;;;;;4981636;28;20058;-14
2022/03/28 09:27:29;;;;;;;2.97;2.63;;;20.40;58.30;;;;;;4977114;28;20051;-14
2022/03/28 09:30:06;;;;;;;2.47;2.28;;;20.40;58.10;;;;;;4980621;28;20053;-13
2022/03/28 09:32:38;;;;;;;4.65;3.08;;;20.40;58.20;;;;;;4981029;28;20050;-14
2022/03/28 09:35:06;;;;;;;2.40;2.30;;;20.40;58.10;;;;;;4979830;28;20042;-14
2022/03/28 09:37:48;;;;;;;2.53;2.42;;;20.40;58.20;;;;;;4977169;28;20042;-14
2022/03/28 09:40:22;;;;;;;2.58;2.47;;;20.50;58.00;;;;;;4978209;28;20094;-13
2022/03/28 09:42:48;;;;;;;2.85;2.65;;;20.40;57.90;;;;;;4980357;28;20050;-14
2022/03/28 09:45:21;;;;;;;2.33;2.20;;;20.50;57.90;;;;;;4980092;28;20054;-15
2022/03/28 09:47:59;;;;;;;3.08;2.88;;;20.50;58.10;;;;;;4978439;28;20415;-14
2022/03/28 09:50:46;;;;;;;3.10;2.40;;;20.50;58.00;;;;;;4979432;28;20062;-14
2022/03/28 09:53:25;;;;;;;2.55;2.45;;;20.50;58.10;;;;;;4978718;28;20047;-14
2022/03/28 09:56:04;;;;;;;3.28;3.08;;;20.50;58.00;;;;;;4980572;28;20054;-13
2022/03/28 09:58:42;;;;;;;2.70;2.50;;;20.50;58.00;;;;;;4979262;28;20054;-14
2022/03/28 10:01:35;;;;;;;2.70;2.50;;;20.50;58.00;;;;;;4979523;28;20628;-14
2022/03/28 10:04:09;;;;;;;2.30;2.20;;;20.50;58.00;;;;;;4978865;28;20042;-14
2022/03/28 10:06:38;;;;;;;2.60;2.50;;;20.50;57.80;;;;;;4977286;28;21017;-15
2022/03/28 10:09:07;;;;;;;2.72;2.63;;;20.60;57.80;;;;;;4978717;28;20054;-15
2022/03/28 10:11:33;;;;;;;2.60;2.40;;;20.50;57.80;;;;;;4978886;28;20058;-14
2022/03/28 10:13:59;;;;;;;2.53;2.42;;;20.50;57.60;;;;;;4979210;28;20047;-16
2022/03/28 10:16:25;;;;;;;2.20;2.10;;;20.50;57.70;;;;;;4977790;28;20723;-15
2022/03/28 10:18:50;;;;;;;2.35;2.25;;;20.50;57.80;;;;;;4980018;28;20054;-15
2022/03/28 10:21:30;;;;;;;2.45;2.25;;;20.50;57.70;;;;;;4978672;28;20119;-14
2022/03/28 10:24:04;;;;;;;2.60;2.40;;;20.50;57.60;;;;;;4977113;28;20164;-15
2022/03/28 10:26:34;;;;;;;2.40;2.20;;;20.50;57.70;;;;;;4978265;28;20058;-14
2022/03/28 10:29:10;;;;;;;2.80;2.70;;;20.60;57.60;;;;;;4984769;28;20684;-13
2022/03/28 10:31:55;;;;;;;2.35;2.25;;;20.60;57.60;;;;;;4983246;28;20046;-14
2022/03/28 10:34:44;;;;;;;2.15;2.05;;;20.50;57.60;;;;;;4983731;28;20061;-14
2022/03/28 10:37:32;;;;;;;2.65;2.45;;;20.50;57.70;;;;;;4980988;28;20046;-15
2022/03/28 10:40:25;;;;;;;2.20;2.10;;;20.60;57.50;;;;;;4983941;28;20058;-14
2022/03/28 10:42:52;;;;;;;2.50;2.40;;;20.60;57.50;;;;;;4983670;28;20777;-13
2022/03/28 10:45:21;;;;;;;2.33;2.20;;;20.60;57.60;;;;;;4983608;28;20142;-14
2022/03/28 10:47:51;;;;;;;2.60;2.40;;;20.60;57.40;;;;;;4981785;28;20066;-15
2022/03/28 10:50:20;;;;;;;2.92;2.75;;;20.60;57.20;;;;;;4983122;28;20140;-14
2022/03/28 10:53:10;;;;;;;2.28;2.15;;;20.60;57.30;;;;;;4983486;28;20104;-14
2022/03/28 10:55:50;;;;;;;3.15;2.15;;;20.60;57.60;;;;;;4982611;28;20073;-14
2022/03/28 10:58:27;;;;;;;1.95;1.85;;;20.70;57.20;;;;;;4980981;28;20534;-13
2022/03/28 11:01:11;;;;;;;2.40;2.30;;;20.60;57.30;;;;;;4634569;28;10000419;-14
2022/03/28 11:03:52;;;;;;;2.40;2.30;;;20.60;57.20;;;;;;4980639;28;20547;-15
2022/03/28 11:06:19;;;;;;;2.30;2.10;;;20.60;57.30;;;;;;4977649;28;20704;-14
2022/03/28 11:08:56;;;;;;;2.55;2.00;;;20.60;57.50;;;;;;4980365;28;20050;-14
2022/03/28 11:11:27;;;;;;;2.13;1.92;;;20.50;57.70;;;;;;4980337;28;20114;-14
2022/03/28 11:14:08;;;;;;;2.22;2.13;;;20.50;57.90;;;;;;4979927;28;20116;-14
2022/03/28 11:16:49;;;;;;;2.13;2.03;;;20.50;57.80;;;;;;4977570;28;20446;-14
2022/03/28 11:19:21;;;;;;;2.08;1.98;;;20.50;57.80;;;;;;4980531;28;20054;-14
2022/03/28 11:21:56;;;;;;;2.47;2.28;;;20.60;57.70;;;;;;4982047;28;20893;-14
2022/03/28 11:24:54;;;;;;;2.17;2.08;;;20.70;57.40;;;;;;4982972;28;20586;-14
2022/03/28 11:27:23;;;;;;;2.28;2.00;;;20.70;57.30;;;;;;4979934;28;20066;-14
2022/03/28 11:29:49;;;;;;;2.20;2.10;;;20.70;57.10;;;;;;4983102;28;20054;-14
2022/03/28 11:32:17;;;;;;;2.00;1.90;;;20.80;57.10;;;;;;4982809;28;20054;-13
2022/03/28 11:34:52;;;;;;;2.30;2.20;;;20.80;57.00;;;;;;4981932;28;20078;-14
2022/03/28 11:37:28;;;;;;;1.80;1.70;;;20.80;56.90;;;;;;4978968;28;20042;-13
2022/03/28 11:39:58;;;;;;;2.30;2.10;;;20.80;56.90;;;;;;4981268;28;20042;-14
2022/03/28 11:42:26;;;;;;;4.10;1.70;;;20.90;56.90;;;;;;4982853;28;20061;-14
2022/03/28 11:44:51;;;;;;;2.03;1.92;;;20.90;56.60;;;;;;4982030;28;20046;-14
2022/03/28 11:47:18;;;;;;;2.05;1.95;;;20.90;56.50;;;;;;4980069;28;20630;-15
2022/03/28 11:49:54;;;;;;;2.15;2.00;;;21.00;56.90;;;;;;4980969;28;20077;-15
2022/03/28 11:52:20;;;;;;;1.83;1.70;;;20.90;56.70;;;;;;4982200;28;20145;-14
2022/03/28 11:54:46;;;;;;;1.88;1.77;;;20.90;56.60;;;;;;4982552;28;20047;-14
2022/03/28 12:00:20;;;;;;;2.60;2.40;;;20.90;56.60;;;;;;4982398;28;20104;-14
2022/03/28 12:02:53;;;;;;;2.15;2.05;;;20.90;56.90;;;;;;4983757;28;20050;-14
2022/03/28 12:05:24;;;;;;;2.17;2.03;;;21.00;56.70;;;;;;4982393;28;20058;-14
2022/03/28 12:07:50;;;;;;;2.28;2.08;;;21.10;56.40;;;;;;4981481;28;20050;-15
2022/03/28 12:10:16;;;;;;;2.58;2.38;;;21.10;56.50;;;;;;4981574;28;20260;-14
2022/03/28 12:12:42;;;;;;;2.30;2.10;;;21.10;56.40;;;;;;4982780;28;20046;-15
2022/03/28 12:15:11;;;;;;;2.53;2.33;;;21.10;56.40;;;;;;4982781;28;20509;-14
2022/03/28 12:17:37;;;;;;;2.88;2.55;;;21.10;56.30;;;;;;4981153;28;20050;-14
2022/03/28 12:20:06;;;;;;;3.85;2.38;;;21.00;56.30;;;;;;4983306;28;20042;-14
2022/03/28 12:22:46;;;;;;;2.38;2.28;;;21.10;56.20;;;;;;4981954;28;20054;-13
2022/03/28 12:25:27;;;;;;;2.33;2.13;;;21.10;56.10;;;;;;4982682;28;20053;-13
2022/03/28 12:27:58;;;;;;;2.63;2.28;;;21.20;56.20;;;;;;4981082;28;20057;-13
2022/03/28 12:30:38;;;;;;;3.00;2.70;;;21.20;56.10;;;;;;4982336;28;20050;-13
2022/03/28 12:33:15;;;;;;;3.15;2.80;;;21.10;56.20;;;;;;4982368;28;20042;-13
2022/03/28 12:35:46;;;;;;;2.53;2.33;;;21.10;56.00;;;;;;4982621;28;20056;-15
2022/03/28 12:38:15;;;;;;;3.83;2.47;;;21.10;54.60;;;;;;4979483;28;20076;-14
2022/03/28 12:40:43;;;;;;;3.25;2.80;;;21.20;54.80;;;;;;4982447;28;20137;-15
2022/03/28 12:43:09;;;;;;;2.78;2.58;;;21.20;53.20;;;;;;4982091;28;20077;-14
2022/03/28 12:45:35;;;;;;;6.75;3.45;;;21.20;51.80;;;;;;4982995;28;20594;-15
2022/03/28 12:48:02;;;;;;;4.18;3.17;;;21.10;50.80;;;;;;4977556;28;20090;-14
2022/03/28 12:50:29;;;;;;;7.32;3.47;;;21.10;48.60;;;;;;4982185;28;20050;-15
2022/03/28 12:53:11;;;;;;;4.53;3.47;;;21.10;48.60;;;;;;4981025;28;20050;-15